PKGRD WIII-WALL
Flight info
| Callsign | PKGRD |
|---|---|
| Flight time | 1h 52m |
| Altitude | 39000 |
| Route | EGUKO T9 SILJA |
| Aircraft | B737/M-SDE2E3FGHIRWXY/LB1 |
Departure
| Time | 2026-04-30 12:28 |
|---|---|
| Airport | Soekarno-Hatta International Airport (WIII) |
Arrival
| Time | 2026-04-30 14:20 |
|---|---|
| Airport | Sultan Aji Muhammad Sulaiman Sepinggan International Airport (WALL) |
| Time | Latitude | Longitude | Altitude | Speed | Heading |
|---|---|---|---|---|---|
| 2026-04-30 11:48 | -6.13525 | 106.65200 | 36 ft | 0 kts | 157° |
| 2026-04-30 12:15 | -6.13506 | 106.65191 | 36 ft | 4 kts | 155° |
| 2026-04-30 12:15 | -6.13485 | 106.65180 | 37 ft | 2 kts | 135° |
| 2026-04-30 12:15 | -6.13479 | 106.65170 | 36 ft | 2 kts | 85° |
| 2026-04-30 12:16 | -6.13482 | 106.65159 | 35 ft | 2 kts | 68° |
| 2026-04-30 12:16 | -6.13486 | 106.65150 | 37 ft | 2 kts | 65° |
| 2026-04-30 12:16 | -6.13487 | 106.65148 | 34 ft | 0 kts | 65° |
| 2026-04-30 12:21 | -6.13482 | 106.65159 | 35 ft | 5 kts | 65° |
| 2026-04-30 12:21 | -6.13467 | 106.65191 | 35 ft | 5 kts | 65° |
| 2026-04-30 12:21 | -6.13455 | 106.65223 | 35 ft | 5 kts | 78° |
| 2026-04-30 12:21 | -6.13469 | 106.65253 | 37 ft | 5 kts | 146° |
| 2026-04-30 12:22 | -6.13501 | 106.65268 | 35 ft | 5 kts | 155° |
| 2026-04-30 12:22 | -6.13533 | 106.65281 | 37 ft | 5 kts | 162° |
| 2026-04-30 12:22 | -6.13569 | 106.65294 | 37 ft | 7 kts | 159° |
| 2026-04-30 12:22 | -6.13616 | 106.65313 | 38 ft | 7 kts | 159° |
| 2026-04-30 12:23 | -6.13664 | 106.65318 | 38 ft | 7 kts | 195° |
| 2026-04-30 12:23 | -6.13699 | 106.65270 | 38 ft | 14 kts | 247° |
| 2026-04-30 12:23 | -6.13732 | 106.65187 | 37 ft | 13 kts | 248° |
| 2026-04-30 12:23 | -6.13764 | 106.65106 | 38 ft | 12 kts | 248° |
| 2026-04-30 12:24 | -6.13795 | 106.65028 | 38 ft | 12 kts | 248° |
| 2026-04-30 12:24 | -6.13826 | 106.64952 | 38 ft | 12 kts | 248° |
| 2026-04-30 12:24 | -6.13855 | 106.64878 | 38 ft | 11 kts | 248° |
| 2026-04-30 12:24 | -6.13884 | 106.64806 | 38 ft | 11 kts | 248° |
| 2026-04-30 12:25 | -6.13913 | 106.64736 | 38 ft | 11 kts | 247° |
| 2026-04-30 12:25 | -6.13939 | 106.64668 | 38 ft | 10 kts | 249° |
| 2026-04-30 12:25 | -6.13966 | 106.64602 | 36 ft | 10 kts | 248° |
| 2026-04-30 12:25 | -6.13997 | 106.64527 | 38 ft | 13 kts | 248° |
| 2026-04-30 12:26 | -6.14028 | 106.64447 | 38 ft | 12 kts | 249° |
| 2026-04-30 12:26 | -6.14058 | 106.64369 | 38 ft | 12 kts | 249° |
| 2026-04-30 12:26 | -6.14104 | 106.64309 | 38 ft | 9 kts | 206° |
| 2026-04-30 12:26 | -6.14109 | 106.64307 | 38 ft | 0 kts | 195° |
| 2026-04-30 12:27 | -6.14113 | 106.64306 | 39 ft | 3 kts | 195° |
| 2026-04-30 12:27 | -6.14156 | 106.64306 | 39 ft | 7 kts | 165° |
| 2026-04-30 12:27 | -6.14200 | 106.64343 | 41 ft | 13 kts | 119° |
| 2026-04-30 12:27 | -6.14228 | 106.64416 | 40 ft | 11 kts | 85° |
| 2026-04-30 12:28 | -6.14209 | 106.64468 | 39 ft | 7 kts | 68° |
| 2026-04-30 12:28 | -6.14110 | 106.64722 | 37 ft | 89 kts | 69° |
| 2026-04-30 12:28 | -6.13908 | 106.65246 | 41 ft | 153 kts | 70° |
| 2026-04-30 12:28 | -6.13461 | 106.66427 | 666 ft | 189 kts | 71° |
| 2026-04-30 12:29 | -6.13045 | 106.67626 | 2368 ft | 177 kts | 72° |
| 2026-04-30 12:29 | -6.12609 | 106.68864 | 3284 ft | 202 kts | 67° |
| 2026-04-30 12:29 | -6.11962 | 106.70263 | 3631 ft | 237 kts | 65° |
| 2026-04-30 12:29 | -6.11257 | 106.71861 | 4137 ft | 261 kts | 68° |
| 2026-04-30 12:30 | -6.10604 | 106.73602 | 5099 ft | 268 kts | 78° |
| 2026-04-30 12:30 | -6.10436 | 106.75484 | 6274 ft | 274 kts | 88° |
| 2026-04-30 12:30 | -6.10397 | 106.77418 | 7381 ft | 277 kts | 89° |
| 2026-04-30 12:30 | -6.10371 | 106.79361 | 8517 ft | 280 kts | 89° |
| 2026-04-30 12:31 | -6.10341 | 106.81337 | 9588 ft | 285 kts | 89° |
| 2026-04-30 12:31 | -6.10305 | 106.83355 | 10502 ft | 295 kts | 89° |
| 2026-04-30 12:31 | -6.10261 | 106.85515 | 10839 ft | 325 kts | 89° |
| 2026-04-30 12:31 | -6.10209 | 106.87876 | 11098 ft | 353 kts | 89° |
| 2026-04-30 12:32 | -6.10149 | 106.90385 | 11699 ft | 362 kts | 89° |
| 2026-04-30 12:32 | -6.10086 | 106.92928 | 11906 ft | 364 kts | 89° |
| 2026-04-30 12:32 | -6.10021 | 106.95481 | 12088 ft | 369 kts | 89° |
| 2026-04-30 12:32 | -6.09956 | 106.98066 | 13021 ft | 370 kts | 89° |
| 2026-04-30 12:33 | -6.09890 | 107.00659 | 13955 ft | 372 kts | 89° |
| 2026-04-30 12:33 | -6.09781 | 107.03261 | 14701 ft | 376 kts | 83° |
| 2026-04-30 12:33 | -6.09072 | 107.05806 | 15386 ft | 382 kts | 66° |
| 2026-04-30 12:33 | -6.07641 | 107.08068 | 16147 ft | 387 kts | 51° |
| 2026-04-30 12:34 | -6.05819 | 107.10083 | 16868 ft | 391 kts | 49° |
| 2026-04-30 12:34 | -6.03963 | 107.12090 | 17516 ft | 396 kts | 48° |
| 2026-04-30 12:34 | -6.02072 | 107.14136 | 18188 ft | 400 kts | 49° |
| 2026-04-30 12:34 | -6.00176 | 107.16197 | 18753 ft | 404 kts | 49° |
| 2026-04-30 12:35 | -5.98268 | 107.18282 | 19321 ft | 407 kts | 49° |
| 2026-04-30 12:35 | -5.96353 | 107.20385 | 19884 ft | 410 kts | 49° |
| 2026-04-30 12:35 | -5.94422 | 107.22510 | 20420 ft | 413 kts | 49° |
| 2026-04-30 12:35 | -5.92478 | 107.24653 | 20976 ft | 416 kts | 49° |
| 2026-04-30 12:36 | -5.90523 | 107.26811 | 21487 ft | 420 kts | 49° |
| 2026-04-30 12:36 | -5.88548 | 107.28991 | 22007 ft | 423 kts | 49° |
| 2026-04-30 12:36 | -5.86563 | 107.31181 | 22487 ft | 426 kts | 49° |
| 2026-04-30 12:36 | -5.84562 | 107.33389 | 22978 ft | 429 kts | 49° |
| 2026-04-30 12:37 | -5.82543 | 107.35617 | 23446 ft | 432 kts | 49° |
| 2026-04-30 12:37 | -5.80518 | 107.37851 | 23809 ft | 436 kts | 49° |
| 2026-04-30 12:37 | -5.78457 | 107.40124 | 24113 ft | 441 kts | 49° |
| 2026-04-30 12:37 | -5.76386 | 107.42408 | 24473 ft | 443 kts | 49° |
| 2026-04-30 12:38 | -5.74311 | 107.44696 | 24845 ft | 445 kts | 49° |
| 2026-04-30 12:38 | -5.72214 | 107.47007 | 25198 ft | 447 kts | 49° |
| 2026-04-30 12:38 | -5.70113 | 107.49324 | 25533 ft | 450 kts | 49° |
| 2026-04-30 12:38 | -5.68002 | 107.51651 | 25855 ft | 453 kts | 49° |
| 2026-04-30 12:39 | -5.65873 | 107.53997 | 26175 ft | 455 kts | 49° |
| 2026-04-30 12:39 | -5.63733 | 107.56356 | 26491 ft | 458 kts | 49° |
| 2026-04-30 12:39 | -5.61587 | 107.58720 | 26796 ft | 460 kts | 49° |
| 2026-04-30 12:39 | -5.59426 | 107.61102 | 27091 ft | 463 kts | 49° |
| 2026-04-30 12:40 | -5.57243 | 107.63506 | 27373 ft | 465 kts | 49° |
| 2026-04-30 12:40 | -5.55067 | 107.65904 | 27670 ft | 467 kts | 49° |
| 2026-04-30 12:40 | -5.52869 | 107.68325 | 27942 ft | 469 kts | 49° |
| 2026-04-30 12:40 | -5.50673 | 107.70744 | 28205 ft | 471 kts | 49° |
| 2026-04-30 12:41 | -5.48455 | 107.73187 | 28464 ft | 473 kts | 49° |
| 2026-04-30 12:41 | -5.46239 | 107.75627 | 28710 ft | 476 kts | 49° |
| 2026-04-30 12:41 | -5.44000 | 107.78093 | 28931 ft | 478 kts | 49° |
| 2026-04-30 12:41 | -5.41913 | 107.80624 | 29225 ft | 477 kts | 54° |
| 2026-04-30 12:42 | -5.39969 | 107.83327 | 29543 ft | 477 kts | 56° |
| 2026-04-30 12:42 | -5.38083 | 107.86069 | 29776 ft | 479 kts | 56° |
| 2026-04-30 12:42 | -5.36203 | 107.88836 | 30038 ft | 480 kts | 56° |
| 2026-04-30 12:42 | -5.34319 | 107.91597 | 30329 ft | 479 kts | 56° |
| 2026-04-30 12:43 | -5.32430 | 107.94337 | 30673 ft | 477 kts | 56° |
| 2026-04-30 12:43 | -5.30533 | 107.97066 | 31031 ft | 475 kts | 56° |
| 2026-04-30 12:43 | -5.28638 | 107.99775 | 31375 ft | 474 kts | 56° |
| 2026-04-30 12:43 | -5.26740 | 108.02480 | 31719 ft | 473 kts | 55° |
| 2026-04-30 12:44 | -5.24851 | 108.05170 | 32084 ft | 472 kts | 55° |
| 2026-04-30 12:44 | -5.22956 | 108.07868 | 32473 ft | 470 kts | 55° |
| 2026-04-30 12:44 | -5.21086 | 108.10531 | 32866 ft | 469 kts | 55° |
| 2026-04-30 12:44 | -5.19205 | 108.13210 | 33261 ft | 468 kts | 55° |
| 2026-04-30 12:45 | -5.17330 | 108.15881 | 33678 ft | 466 kts | 55° |
| 2026-04-30 12:45 | -5.15466 | 108.18537 | 34083 ft | 465 kts | 55° |
| 2026-04-30 12:45 | -5.13610 | 108.21182 | 34461 ft | 463 kts | 55° |
| 2026-04-30 12:45 | -5.11756 | 108.23823 | 34848 ft | 461 kts | 55° |
| 2026-04-30 12:46 | -5.09917 | 108.26443 | 35226 ft | 459 kts | 55° |
| 2026-04-30 12:46 | -5.08077 | 108.29063 | 35578 ft | 458 kts | 55° |
| 2026-04-30 12:46 | -5.06243 | 108.31675 | 35922 ft | 457 kts | 55° |
| 2026-04-30 12:46 | -5.04419 | 108.34274 | 36242 ft | 456 kts | 55° |
| 2026-04-30 12:47 | -5.02591 | 108.36876 | 36534 ft | 456 kts | 55° |
| 2026-04-30 12:47 | -5.00792 | 108.39437 | 36805 ft | 456 kts | 55° |
| 2026-04-30 12:47 | -4.98966 | 108.42037 | 37097 ft | 455 kts | 56° |
| 2026-04-30 12:47 | -4.97150 | 108.44626 | 37351 ft | 456 kts | 56° |
| 2026-04-30 12:48 | -4.95324 | 108.47232 | 37543 ft | 457 kts | 56° |
| 2026-04-30 12:48 | -4.93494 | 108.49844 | 37804 ft | 457 kts | 56° |
| 2026-04-30 12:48 | -4.91669 | 108.52448 | 38105 ft | 456 kts | 56° |
| 2026-04-30 12:48 | -4.89850 | 108.55044 | 38376 ft | 455 kts | 56° |
| 2026-04-30 12:49 | -4.88026 | 108.57646 | 38614 ft | 455 kts | 56° |
| 2026-04-30 12:49 | -4.86207 | 108.60241 | 38809 ft | 455 kts | 56° |
| 2026-04-30 12:49 | -4.84382 | 108.62845 | 38932 ft | 458 kts | 56° |
| 2026-04-30 12:49 | -4.82547 | 108.65462 | 38921 ft | 459 kts | 56° |
| 2026-04-30 12:50 | -4.78891 | 108.70675 | 38923 ft | 455 kts | 56° |
| 2026-04-30 12:50 | -4.75266 | 108.75844 | 38935 ft | 452 kts | 56° |
| 2026-04-30 12:51 | -4.71663 | 108.80998 | 38933 ft | 450 kts | 58° |
| 2026-04-30 12:51 | -4.68754 | 108.86514 | 38935 ft | 448 kts | 66° |
| 2026-04-30 12:52 | -4.66134 | 108.92175 | 38936 ft | 447 kts | 66° |
| 2026-04-30 12:52 | -4.63518 | 108.97792 | 38935 ft | 448 kts | 66° |
| 2026-04-30 12:53 | -4.60833 | 109.03468 | 38938 ft | 449 kts | 65° |
| 2026-04-30 12:53 | -4.58142 | 109.09116 | 38939 ft | 450 kts | 65° |
| 2026-04-30 12:54 | -4.55442 | 109.14776 | 38932 ft | 451 kts | 65° |
| 2026-04-30 12:54 | -4.52733 | 109.20453 | 38935 ft | 452 kts | 65° |
| 2026-04-30 12:55 | -4.50019 | 109.26143 | 38938 ft | 453 kts | 65° |
| 2026-04-30 12:55 | -4.47304 | 109.31834 | 38940 ft | 453 kts | 65° |
| 2026-04-30 12:56 | -4.44579 | 109.37544 | 38937 ft | 453 kts | 65° |
| 2026-04-30 12:56 | -4.41878 | 109.43203 | 38939 ft | 454 kts | 65° |
| 2026-04-30 12:57 | -4.39136 | 109.48945 | 38935 ft | 454 kts | 65° |
| 2026-04-30 12:57 | -4.36413 | 109.54648 | 38944 ft | 454 kts | 65° |
| 2026-04-30 12:58 | -4.33686 | 109.60357 | 38939 ft | 454 kts | 65° |
| 2026-04-30 12:58 | -4.30976 | 109.66030 | 38939 ft | 454 kts | 65° |
| 2026-04-30 12:59 | -4.28228 | 109.71781 | 38944 ft | 454 kts | 65° |
| 2026-04-30 12:59 | -4.25502 | 109.77484 | 38943 ft | 454 kts | 65° |
| 2026-04-30 13:00 | -4.22771 | 109.83195 | 38949 ft | 454 kts | 65° |
| 2026-04-30 13:00 | -4.20042 | 109.88903 | 38948 ft | 454 kts | 65° |
| 2026-04-30 13:01 | -4.17313 | 109.94609 | 38946 ft | 454 kts | 65° |
| 2026-04-30 13:01 | -4.14604 | 110.00271 | 38945 ft | 454 kts | 65° |
| 2026-04-30 13:02 | -4.11879 | 110.05966 | 38944 ft | 454 kts | 65° |
| 2026-04-30 13:02 | -4.09151 | 110.11666 | 38947 ft | 454 kts | 65° |
| 2026-04-30 13:03 | -4.06425 | 110.17362 | 38943 ft | 454 kts | 65° |
| 2026-04-30 13:03 | -4.03693 | 110.23069 | 38948 ft | 454 kts | 65° |
| 2026-04-30 13:04 | -4.00962 | 110.28772 | 38943 ft | 454 kts | 65° |
| 2026-04-30 13:04 | -3.98230 | 110.34477 | 38944 ft | 454 kts | 65° |
| 2026-04-30 13:05 | -3.95497 | 110.40182 | 38950 ft | 455 kts | 65° |
| 2026-04-30 13:06 | -3.91398 | 110.48748 | 38942 ft | 455 kts | 65° |
| 2026-04-30 13:06 | -3.88683 | 110.54422 | 38944 ft | 455 kts | 65° |
| 2026-04-30 13:07 | -3.85934 | 110.60167 | 38951 ft | 455 kts | 65° |
| 2026-04-30 13:07 | -3.83197 | 110.65886 | 38946 ft | 455 kts | 65° |
| 2026-04-30 13:08 | -3.80461 | 110.71600 | 38947 ft | 455 kts | 65° |
| 2026-04-30 13:08 | -3.77730 | 110.77305 | 38947 ft | 455 kts | 65° |
| 2026-04-30 13:09 | -3.74989 | 110.83028 | 38949 ft | 455 kts | 65° |
| 2026-04-30 13:09 | -3.72273 | 110.88700 | 38946 ft | 455 kts | 65° |
| 2026-04-30 13:10 | -3.69531 | 110.94422 | 38945 ft | 456 kts | 65° |
| 2026-04-30 13:10 | -3.66793 | 111.00136 | 38947 ft | 456 kts | 65° |
| 2026-04-30 13:11 | -3.64050 | 111.05858 | 38948 ft | 456 kts | 65° |
| 2026-04-30 13:11 | -3.61306 | 111.11583 | 38945 ft | 456 kts | 65° |
| 2026-04-30 13:12 | -3.58567 | 111.17296 | 38947 ft | 456 kts | 65° |
| 2026-04-30 13:12 | -3.55824 | 111.23015 | 38947 ft | 456 kts | 65° |
| 2026-04-30 13:13 | -3.51713 | 111.31587 | 38947 ft | 455 kts | 65° |
| 2026-04-30 13:14 | -3.48067 | 111.39185 | 38948 ft | 455 kts | 65° |
| 2026-04-30 13:14 | -3.43963 | 111.47738 | 38951 ft | 454 kts | 65° |
| 2026-04-30 13:15 | -3.39940 | 111.56326 | 38948 ft | 454 kts | 66° |
| 2026-04-30 13:16 | -3.37289 | 111.62056 | 38950 ft | 454 kts | 66° |
| 2026-04-30 13:16 | -3.34629 | 111.67790 | 38951 ft | 454 kts | 66° |
| 2026-04-30 13:17 | -3.30652 | 111.76340 | 38951 ft | 454 kts | 66° |
| 2026-04-30 13:18 | -3.26649 | 111.84940 | 38952 ft | 454 kts | 65° |
| 2026-04-30 13:18 | -3.22649 | 111.93532 | 38953 ft | 454 kts | 65° |
| 2026-04-30 13:19 | -3.19981 | 111.99263 | 38953 ft | 454 kts | 65° |
| 2026-04-30 13:19 | -3.17314 | 112.04988 | 38953 ft | 454 kts | 65° |
| 2026-04-30 13:20 | -3.14646 | 112.10716 | 38954 ft | 454 kts | 65° |
| 2026-04-30 13:20 | -3.11970 | 112.16460 | 38946 ft | 455 kts | 65° |
| 2026-04-30 13:21 | -3.09295 | 112.22199 | 38960 ft | 455 kts | 65° |
| 2026-04-30 13:22 | -3.05276 | 112.30825 | 38951 ft | 456 kts | 65° |
| 2026-04-30 13:22 | -3.01255 | 112.39448 | 38953 ft | 457 kts | 65° |
| 2026-04-30 13:23 | -2.97226 | 112.48089 | 38948 ft | 457 kts | 66° |
| 2026-04-30 13:24 | -2.91859 | 112.59596 | 38957 ft | 458 kts | 66° |
| 2026-04-30 13:25 | -2.86462 | 112.71164 | 38953 ft | 459 kts | 66° |
| 2026-04-30 13:26 | -2.79708 | 112.85633 | 38947 ft | 460 kts | 65° |
| 2026-04-30 13:28 | -2.72925 | 113.00163 | 38950 ft | 462 kts | 65° |
| 2026-04-30 13:28 | -2.68845 | 113.08897 | 38951 ft | 463 kts | 65° |
| 2026-04-30 13:29 | -2.63401 | 113.20552 | 38949 ft | 462 kts | 65° |
| 2026-04-30 13:31 | -2.56610 | 113.35082 | 38947 ft | 461 kts | 65° |
| 2026-04-30 13:32 | -2.49863 | 113.49516 | 38932 ft | 456 kts | 65° |
| 2026-04-30 13:33 | -2.44515 | 113.60952 | 38932 ft | 452 kts | 65° |
| 2026-04-30 13:34 | -2.40532 | 113.69467 | 38933 ft | 450 kts | 65° |
| 2026-04-30 13:35 | -2.35249 | 113.80760 | 38932 ft | 448 kts | 65° |
| 2026-04-30 13:36 | -2.29970 | 113.92041 | 38932 ft | 448 kts | 65° |
| 2026-04-30 13:36 | -2.26010 | 114.00501 | 38932 ft | 448 kts | 65° |
| 2026-04-30 13:37 | -2.22044 | 114.08973 | 38926 ft | 450 kts | 65° |
| 2026-04-30 13:38 | -2.18057 | 114.17489 | 38938 ft | 452 kts | 65° |
| 2026-04-30 13:39 | -2.12714 | 114.28898 | 38934 ft | 454 kts | 65° |
| 2026-04-30 13:40 | -2.08695 | 114.37478 | 38937 ft | 454 kts | 65° |
| 2026-04-30 13:40 | -2.06014 | 114.43201 | 38933 ft | 455 kts | 65° |
| 2026-04-30 13:41 | -2.03328 | 114.48935 | 38939 ft | 456 kts | 65° |
| 2026-04-30 13:41 | -2.00636 | 114.54679 | 38937 ft | 456 kts | 65° |
| 2026-04-30 13:42 | -1.97946 | 114.60419 | 38937 ft | 456 kts | 65° |
| 2026-04-30 13:42 | -1.93904 | 114.69044 | 38943 ft | 456 kts | 65° |
| 2026-04-30 13:43 | -1.91214 | 114.74782 | 38942 ft | 456 kts | 65° |
| 2026-04-30 13:43 | -1.88523 | 114.80524 | 38942 ft | 456 kts | 65° |
| 2026-04-30 13:44 | -1.85851 | 114.86223 | 38942 ft | 456 kts | 65° |
| 2026-04-30 13:44 | -1.83159 | 114.91965 | 38942 ft | 456 kts | 65° |
| 2026-04-30 13:45 | -1.79131 | 115.00554 | 38949 ft | 455 kts | 65° |
| 2026-04-30 13:46 | -1.76436 | 115.06301 | 38943 ft | 457 kts | 65° |
| 2026-04-30 13:46 | -1.73739 | 115.12053 | 38955 ft | 458 kts | 65° |
| 2026-04-30 13:47 | -1.71036 | 115.17818 | 38948 ft | 459 kts | 65° |
| 2026-04-30 13:47 | -1.68341 | 115.23608 | 38949 ft | 460 kts | 67° |
| 2026-04-30 13:48 | -1.66135 | 115.29605 | 38961 ft | 460 kts | 70° |
| 2026-04-30 13:48 | -1.63646 | 115.35516 | 38947 ft | 461 kts | 65° |
| 2026-04-30 13:49 | -1.60978 | 115.41348 | 38968 ft | 463 kts | 65° |
| 2026-04-30 13:49 | -1.58328 | 115.47229 | 38964 ft | 464 kts | 65° |
| 2026-04-30 13:50 | -1.55721 | 115.53125 | 38962 ft | 465 kts | 66° |
| 2026-04-30 13:50 | -1.51826 | 115.61995 | 38967 ft | 465 kts | 66° |
| 2026-04-30 13:51 | -1.49241 | 115.67879 | 38968 ft | 463 kts | 66° |
| 2026-04-30 13:51 | -1.46663 | 115.73742 | 38951 ft | 460 kts | 66° |
| 2026-04-30 13:52 | -1.44110 | 115.79548 | 38949 ft | 457 kts | 66° |
| 2026-04-30 13:52 | -1.41557 | 115.85353 | 38952 ft | 456 kts | 66° |
| 2026-04-30 13:53 | -1.39008 | 115.91149 | 38949 ft | 455 kts | 66° |
| 2026-04-30 13:53 | -1.36463 | 115.96935 | 38938 ft | 455 kts | 66° |
| 2026-04-30 13:54 | -1.33919 | 116.02719 | 38941 ft | 455 kts | 66° |
| 2026-04-30 13:54 | -1.31371 | 116.08511 | 38942 ft | 456 kts | 66° |
| 2026-04-30 13:55 | -1.28815 | 116.14322 | 38932 ft | 457 kts | 66° |
| 2026-04-30 13:55 | -1.26257 | 116.20138 | 38933 ft | 458 kts | 66° |
| 2026-04-30 13:56 | -1.23691 | 116.25969 | 38929 ft | 458 kts | 66° |
| 2026-04-30 13:56 | -1.21130 | 116.31790 | 38925 ft | 459 kts | 66° |
| 2026-04-30 13:57 | -1.18550 | 116.37656 | 38924 ft | 461 kts | 66° |
| 2026-04-30 13:57 | -1.16139 | 116.43635 | 38293 ft | 470 kts | 71° |
| 2026-04-30 13:58 | -1.15168 | 116.46722 | 37633 ft | 466 kts | 73° |
| 2026-04-30 13:58 | -1.13330 | 116.52904 | 36114 ft | 463 kts | 73° |
| 2026-04-30 13:58 | -1.12385 | 116.55995 | 35294 ft | 464 kts | 72° |
| 2026-04-30 13:59 | -1.11420 | 116.59076 | 34404 ft | 466 kts | 72° |
| 2026-04-30 13:59 | -1.10433 | 116.62175 | 33400 ft | 469 kts | 72° |
| 2026-04-30 13:59 | -1.09450 | 116.65243 | 32382 ft | 471 kts | 72° |
| 2026-04-30 13:59 | -1.08450 | 116.68360 | 31340 ft | 472 kts | 72° |
| 2026-04-30 14:00 | -1.07446 | 116.71498 | 30242 ft | 475 kts | 72° |
| 2026-04-30 14:00 | -1.05375 | 116.77850 | 27639 ft | 479 kts | 69° |
| 2026-04-30 14:00 | -1.04051 | 116.80839 | 26652 ft | 475 kts | 64° |
| 2026-04-30 14:01 | -1.02570 | 116.83760 | 25680 ft | 470 kts | 63° |
| 2026-04-30 14:01 | -1.01066 | 116.86659 | 24731 ft | 465 kts | 63° |
| 2026-04-30 14:01 | -0.99621 | 116.89527 | 23801 ft | 461 kts | 64° |
| 2026-04-30 14:01 | -0.98223 | 116.92392 | 22746 ft | 457 kts | 65° |
| 2026-04-30 14:02 | -0.96862 | 116.95240 | 21766 ft | 450 kts | 66° |
| 2026-04-30 14:02 | -0.95744 | 116.98118 | 20991 ft | 439 kts | 72° |
| 2026-04-30 14:02 | -0.94806 | 117.00980 | 20247 ft | 429 kts | 72° |
| 2026-04-30 14:02 | -0.94191 | 117.02848 | 19756 ft | 424 kts | 72° |
| 2026-04-30 14:03 | -0.93246 | 117.05622 | 19018 ft | 420 kts | 71° |
| 2026-04-30 14:03 | -0.92290 | 117.08347 | 18563 ft | 410 kts | 71° |
| 2026-04-30 14:03 | -0.91344 | 117.11015 | 18099 ft | 405 kts | 71° |
| 2026-04-30 14:03 | -0.90400 | 117.13675 | 17641 ft | 409 kts | 71° |
| 2026-04-30 14:04 | -0.89448 | 117.16360 | 17190 ft | 411 kts | 71° |
| 2026-04-30 14:04 | -0.88498 | 117.19048 | 16748 ft | 408 kts | 71° |
| 2026-04-30 14:04 | -0.87908 | 117.21802 | 16284 ft | 405 kts | 90° |
| 2026-04-30 14:04 | -0.88394 | 117.24536 | 15907 ft | 403 kts | 110° |
| 2026-04-30 14:05 | -0.89706 | 117.27020 | 15488 ft | 403 kts | 124° |
| 2026-04-30 14:05 | -0.91551 | 117.29100 | 15064 ft | 402 kts | 139° |
| 2026-04-30 14:05 | -0.93893 | 117.30638 | 14654 ft | 401 kts | 149° |
| 2026-04-30 14:05 | -0.96346 | 117.31957 | 14210 ft | 401 kts | 151° |
| 2026-04-30 14:06 | -0.98810 | 117.33235 | 13796 ft | 399 kts | 152° |
| 2026-04-30 14:06 | -1.03719 | 117.35794 | 12887 ft | 395 kts | 151° |
| 2026-04-30 14:07 | -1.08543 | 117.38365 | 11948 ft | 391 kts | 150° |
| 2026-04-30 14:07 | -1.10919 | 117.39641 | 11570 ft | 382 kts | 150° |
| 2026-04-30 14:07 | -1.13207 | 117.40872 | 11182 ft | 366 kts | 150° |
| 2026-04-30 14:08 | -1.17531 | 117.43199 | 10465 ft | 341 kts | 150° |
| 2026-04-30 14:08 | -1.19590 | 117.44306 | 10134 ft | 330 kts | 150° |
| 2026-04-30 14:08 | -1.23513 | 117.46251 | 9923 ft | 299 kts | 165° |
| 2026-04-30 14:09 | -1.25520 | 117.46341 | 9808 ft | 284 kts | 188° |
| 2026-04-30 14:09 | -1.27363 | 117.45679 | 9340 ft | 284 kts | 210° |
| 2026-04-30 14:09 | -1.29898 | 117.42746 | 8486 ft | 281 kts | 245° |
| 2026-04-30 14:10 | -1.30616 | 117.40924 | 8233 ft | 281 kts | 249° |
| 2026-04-30 14:10 | -1.31278 | 117.39075 | 8014 ft | 285 kts | 250° |
| 2026-04-30 14:10 | -1.31957 | 117.37198 | 7783 ft | 288 kts | 249° |
| 2026-04-30 14:10 | -1.32639 | 117.35352 | 7548 ft | 286 kts | 249° |
| 2026-04-30 14:11 | -1.33283 | 117.33484 | 7309 ft | 282 kts | 259° |
| 2026-04-30 14:11 | -1.33254 | 117.31522 | 6934 ft | 280 kts | 278° |
| 2026-04-30 14:11 | -1.32951 | 117.29638 | 6637 ft | 277 kts | 279° |
| 2026-04-30 14:11 | -1.32638 | 117.27711 | 6220 ft | 278 kts | 279° |
| 2026-04-30 14:12 | -1.32352 | 117.25842 | 5858 ft | 276 kts | 279° |
| 2026-04-30 14:12 | -1.32078 | 117.23935 | 5493 ft | 275 kts | 278° |
| 2026-04-30 14:12 | -1.31819 | 117.22048 | 5159 ft | 273 kts | 278° |
| 2026-04-30 14:12 | -1.31571 | 117.20180 | 4865 ft | 270 kts | 278° |
| 2026-04-30 14:13 | -1.31328 | 117.18332 | 4488 ft | 270 kts | 278° |
| 2026-04-30 14:13 | -1.31085 | 117.16472 | 4168 ft | 267 kts | 278° |
| 2026-04-30 14:13 | -1.30822 | 117.14650 | 3844 ft | 264 kts | 285° |
| 2026-04-30 14:13 | -1.29973 | 117.13063 | 3535 ft | 258 kts | 316° |
| 2026-04-30 14:14 | -1.28527 | 117.12049 | 3345 ft | 253 kts | 337° |
| 2026-04-30 14:14 | -1.26918 | 117.11368 | 3200 ft | 251 kts | 339° |
| 2026-04-30 14:14 | -1.25342 | 117.10726 | 3023 ft | 238 kts | 339° |
| 2026-04-30 14:14 | -1.23870 | 117.10107 | 2903 ft | 221 kts | 339° |
| 2026-04-30 14:15 | -1.22512 | 117.09531 | 2753 ft | 204 kts | 339° |
| 2026-04-30 14:15 | -1.21255 | 117.08997 | 2633 ft | 188 kts | 339° |
| 2026-04-30 14:15 | -1.20235 | 117.08299 | 2504 ft | 174 kts | 308° |
| 2026-04-30 14:15 | -1.19780 | 117.07231 | 2442 ft | 167 kts | 276° |
| 2026-04-30 14:16 | -1.20038 | 117.06131 | 2416 ft | 160 kts | 251° |
| 2026-04-30 14:16 | -1.20330 | 117.05064 | 2345 ft | 158 kts | 256° |
| 2026-04-30 14:16 | -1.20697 | 117.04034 | 2275 ft | 158 kts | 249° |
| 2026-04-30 14:16 | -1.21115 | 117.03016 | 2206 ft | 158 kts | 248° |
| 2026-04-30 14:17 | -1.21539 | 117.02003 | 2110 ft | 159 kts | 248° |
| 2026-04-30 14:17 | -1.21966 | 117.00989 | 2029 ft | 158 kts | 248° |
| 2026-04-30 14:17 | -1.22397 | 116.99967 | 1924 ft | 161 kts | 248° |
| 2026-04-30 14:17 | -1.22821 | 116.98960 | 1737 ft | 152 kts | 248° |
| 2026-04-30 14:18 | -1.23221 | 116.98008 | 1542 ft | 147 kts | 248° |
| 2026-04-30 14:18 | -1.23615 | 116.97074 | 1344 ft | 146 kts | 248° |
| 2026-04-30 14:18 | -1.24404 | 116.95197 | 973 ft | 146 kts | 248° |
| 2026-04-30 14:19 | -1.25187 | 116.93347 | 659 ft | 142 kts | 246° |
| 2026-04-30 14:19 | -1.25566 | 116.92442 | 466 ft | 141 kts | 252° |
| 2026-04-30 14:19 | -1.25955 | 116.91557 | 290 ft | 137 kts | 247° |
| 2026-04-30 14:20 | -1.26311 | 116.90684 | 109 ft | 133 kts | 249° |
| 2026-04-30 14:20 | -1.26655 | 116.89875 | 27 ft | 118 kts | 246° |
| 2026-04-30 14:20 | -1.27019 | 116.89015 | 25 ft | 15 kts | 249° |
| 2026-04-30 14:21 | -1.26978 | 116.88935 | 27 ft | 14 kts | 333° |
| 2026-04-30 14:21 | -1.26955 | 116.88926 | 27 ft | 0 kts | 339° |
| 2026-04-30 14:22 | -1.26934 | 116.88918 | 25 ft | 9 kts | 344° |
| 2026-04-30 14:22 | -1.26839 | 116.89009 | 26 ft | 13 kts | 65° |
| 2026-04-30 14:22 | -1.26802 | 116.89094 | 30 ft | 13 kts | 66° |
| 2026-04-30 14:23 | -1.26731 | 116.89258 | 28 ft | 13 kts | 67° |
| 2026-04-30 14:23 | -1.26665 | 116.89418 | 27 ft | 14 kts | 67° |
| 2026-04-30 14:24 | -1.26577 | 116.89629 | 29 ft | 17 kts | 68° |
| 2026-04-30 14:24 | -1.26533 | 116.89737 | 29 ft | 15 kts | 66° |
| 2026-04-30 14:25 | -1.26416 | 116.89757 | 26 ft | 1 kts | 349° |
| 2026-04-30 14:25 | -1.26370 | 116.89742 | 29 ft | 3 kts | 337° |
| 2026-04-30 14:26 | -1.26361 | 116.89738 | 29 ft | 0 kts | 337° |
| 2026-04-30 14:31 | -1.20468 | 117.08553 | 2546 ft | 178 kts | 318° |
| 2026-04-30 14:31 | -1.19885 | 117.07655 | 2474 ft | 168 kts | 290° |